Deo Volente — PHFJ — position and weather

sailwx.info

Track history (hours):
 
Tides and Currents Weather Stations Pressure Air Temp Water Temp Dewpoint Dewpoint Depression Visibility Wind Speed Wind Dir Waves Ship Positions

Deo Volente

Last reported at 2017-Feb-24 17:11 UTC. Time now 2017-Feb-25 13:50 UTC.
Position N 37°24' E 024°44'.

Length 105 m; draft 5 m.

Type: Cargo ship. MMSI: 246518000.

Date/timePositionNaut miles runAvg speedWind from/ knotsBaromVisibWave heightAir tempDewpointWater temp
2017-Feb-24 17:11N 37°24' E 024°44'1016.7
2017-Feb-24 16:33N 37°19' E 024°55'1616.1
2017-Feb-24 15:33N 37°18' E 025°16'2115.7
2017-Feb-24 14:13N 37°15' E 025°42'  
2017-Feb-20 03:12N 37°43' E 016°06'1515.9
2017-Feb-20 02:14N 37°51' E 015°49'1116.3
2017-Feb-20 01:34N 37°58' E 015°38'1716.5
2017-Feb-20 00:33N 38°15' E 015°37'1313.2
2017-Feb-19 23:33N 38°27' E 015°30'33716.7
2017-Feb-19 03:26N 42°41' E 010°40'2116.5
2017-Feb-19 02:09N 42°59' E 010°24'1016.7
2017-Feb-19 01:34N 43°07' E 010°18'1616.5
2017-Feb-19 00:34N 43°22' E 010°06'1616.5
2017-Feb-18 23:34N 43°35' E 009°54'1616.3
2017-Feb-18 22:34N 43°52' E 009°53'1313.4
2017-Feb-18 21:33N 44°05' E 009°51'0 0.3
2017-Feb-18 20:33N 44°05' E 009°51'0 0.0
2017-Feb-18 19:33N 44°05' E 009°51'0 0.0
2017-Feb-18 18:33N 44°05' E 009°51'0 0.0
2017-Feb-18 17:33N 44°05' E 009°51'0 0.1
2017-Feb-18 16:33N 44°05' E 009°51'0 0.0
2017-Feb-18 15:33N 44°05' E 009°51'0 0.0
2017-Feb-18 14:33N 44°05' E 009°51'0 0.1
2017-Feb-18 13:33N 44°05' E 009°51'6 5.9
2017-Feb-18 12:34N 44°00' E 009°56'1716.7
2017-Feb-18 11:33N 43°50' E 009°38'1616.5
2017-Feb-18 10:33N 43°39' E 009°20'1716.5
2017-Feb-18 09:33N 43°28' E 009°03'33117.0
2017-Feb-17 14:06N 39°57' E 003°22'916.5
2017-Feb-17 13:33N 39°51' E 003°13'3 3.5
2017-Feb-17 12:33N 39°50' E 003°09'0 0.0
2017-Feb-17 11:33N 39°50' E 003°09'0 0.0
2017-Feb-17 10:33N 39°50' E 003°09'0 0.0
2017-Feb-17 09:33N 39°50' E 003°09'0 0.0
2017-Feb-17 08:33N 39°50' E 003°09'3 2.9
2017-Feb-17 07:33N 39°51' E 003°12'1510.3
2017-Feb-17 06:06N 39°56' E 002°54'1017.5
2017-Feb-17 05:33N 39°51' E 002°43'1717.1
2017-Feb-17 04:33N 39°42' E 002°24'1716.7
2017-Feb-17 03:33N 39°32' E 002°06'1717.1
2017-Feb-17 02:32N 39°22' E 001°48'15516.4
2017-Feb-16 17:08N 37°33' W 000°32'1315.4
2017-Feb-16 16:19N 37°25' W 000°44'22614.0
2017-Feb-16 00:13N 36°07' W 005°08'812.9
2017-Feb-15 23:33N 36°05' W 005°19'4 4.3
2017-Feb-15 22:33N 36°09' W 005°22'0 0.0
2017-Feb-15 21:33N 36°09' W 005°22'2 2.0
2017-Feb-15 20:26N 36°07' W 005°23'8 9.5
2017-Feb-15 19:33N 35°59' W 005°26'1212.2
2017-Feb-15 18:33N 35°56' W 005°40'25912.2
2017-Feb-14 21:24N 38°30' W 010°01'1415.9
2017-Feb-14 20:33N 38°43' W 010°05'1615.9
2017-Feb-14 19:33N 38°59' W 010°06'  
Track history (hours):
 
Tides and Currents Weather Stations Pressure Air Temp Water Temp Dewpoint Dewpoint Depression Visibility Wind Speed Wind Dir Waves Ship Positions

Deo Volente

Last reported at 2017-Feb-24 17:11 UTC. Time now 2017-Feb-25 13:50 UTC.
Position N 37°24' E 024°44'.

Length 105 m; draft 5 m.

Type: Cargo ship. MMSI: 246518000.

Date/timePositionNaut miles runAvg speedWind from/ knotsBaromVisibWave heightAir tempDewpointWater temp
2017-Feb-24 17:11N 37°24' E 024°44'1016.7
2017-Feb-24 16:33N 37°19' E 024°55'1616.1
2017-Feb-24 15:33N 37°18' E 025°16'2115.7
2017-Feb-24 14:13N 37°15' E 025°42'  
2017-Feb-20 03:12N 37°43' E 016°06'1515.9
2017-Feb-20 02:14N 37°51' E 015°49'1116.3
2017-Feb-20 01:34N 37°58' E 015°38'1716.5
2017-Feb-20 00:33N 38°15' E 015°37'1313.2
2017-Feb-19 23:33N 38°27' E 015°30'33716.7
2017-Feb-19 03:26N 42°41' E 010°40'2116.5
2017-Feb-19 02:09N 42°59' E 010°24'1016.7
2017-Feb-19 01:34N 43°07' E 010°18'1616.5
2017-Feb-19 00:34N 43°22' E 010°06'1616.5
2017-Feb-18 23:34N 43°35' E 009°54'1616.3
2017-Feb-18 22:34N 43°52' E 009°53'1313.4
2017-Feb-18 21:33N 44°05' E 009°51'0 0.3
2017-Feb-18 20:33N 44°05' E 009°51'0 0.0
2017-Feb-18 19:33N 44°05' E 009°51'0 0.0
2017-Feb-18 18:33N 44°05' E 009°51'0 0.0
2017-Feb-18 17:33N 44°05' E 009°51'0 0.1
2017-Feb-18 16:33N 44°05' E 009°51'0 0.0
2017-Feb-18 15:33N 44°05' E 009°51'0 0.0
2017-Feb-18 14:33N 44°05' E 009°51'0 0.1
2017-Feb-18 13:33N 44°05' E 009°51'6 5.9
2017-Feb-18 12:34N 44°00' E 009°56'1716.7
2017-Feb-18 11:33N 43°50' E 009°38'1616.5
2017-Feb-18 10:33N 43°39' E 009°20'1716.5
2017-Feb-18 09:33N 43°28' E 009°03'33117.0
2017-Feb-17 14:06N 39°57' E 003°22'916.5
2017-Feb-17 13:33N 39°51' E 003°13'3 3.5
2017-Feb-17 12:33N 39°50' E 003°09'0 0.0
2017-Feb-17 11:33N 39°50' E 003°09'0 0.0
2017-Feb-17 10:33N 39°50' E 003°09'0 0.0
2017-Feb-17 09:33N 39°50' E 003°09'0 0.0
2017-Feb-17 08:33N 39°50' E 003°09'3 2.9
2017-Feb-17 07:33N 39°51' E 003°12'1510.3
2017-Feb-17 06:06N 39°56' E 002°54'1017.5
2017-Feb-17 05:33N 39°51' E 002°43'1717.1
2017-Feb-17 04:33N 39°42' E 002°24'1716.7
2017-Feb-17 03:33N 39°32' E 002°06'1717.1
2017-Feb-17 02:32N 39°22' E 001°48'15516.4
2017-Feb-16 17:08N 37°33' W 000°32'1315.4
2017-Feb-16 16:19N 37°25' W 000°44'22614.0
2017-Feb-16 00:13N 36°07' W 005°08'812.9
2017-Feb-15 23:33N 36°05' W 005°19'4 4.3
2017-Feb-15 22:33N 36°09' W 005°22'0 0.0
2017-Feb-15 21:33N 36°09' W 005°22'2 2.0
2017-Feb-15 20:26N 36°07' W 005°23'8 9.5
2017-Feb-15 19:33N 35°59' W 005°26'1212.2
2017-Feb-15 18:33N 35°56' W 005°40'25912.2
2017-Feb-14 21:24N 38°30' W 010°01'1415.9
2017-Feb-14 20:33N 38°43' W 010°05'1615.9
2017-Feb-14 19:33N 38°59' W 010°06'  

Dump ship's entire track history